sensor_id;sensor_type;location;lat;lon;timestamp;temperature;humidity
77592;DHT22;66891;46.884;17.436;2023-06-26T00:01:01;17.90;80.37
77592;DHT22;66891;46.884;17.436;2023-06-26T00:03:29;17.89;80.11
77592;DHT22;66891;46.884;17.436;2023-06-26T00:05:56;17.87;79.69
77592;DHT22;66891;46.884;17.436;2023-06-26T00:08:28;17.86;79.80
77592;DHT22;66891;46.884;17.436;2023-06-26T00:10:55;17.87;79.75
77592;DHT22;66891;46.884;17.436;2023-06-26T00:13:23;17.87;79.56
77592;DHT22;66891;46.884;17.436;2023-06-26T00:15:52;17.75;79.85
77592;DHT22;66891;46.884;17.436;2023-06-26T00:18:20;17.80;79.89
77592;DHT22;66891;46.884;17.436;2023-06-26T00:20:47;17.68;79.65
77592;DHT22;66891;46.884;17.436;2023-06-26T00:23:16;17.63;80.47
77592;DHT22;66891;46.884;17.436;2023-06-26T00:25:43;17.55;81.10
77592;DHT22;66891;46.884;17.436;2023-06-26T00:28:11;17.42;81.07
77592;DHT22;66891;46.884;17.436;2023-06-26T00:30:38;17.44;80.85
77592;DHT22;66891;46.884;17.436;2023-06-26T00:33:07;17.38;81.55
77592;DHT22;66891;46.884;17.436;2023-06-26T00:35:35;17.28;81.86
77592;DHT22;66891;46.884;17.436;2023-06-26T00:38:02;17.21;81.92
77592;DHT22;66891;46.884;17.436;2023-06-26T00:40:29;17.15;82.57
77592;DHT22;66891;46.884;17.436;2023-06-26T00:42:57;17.10;83.08
77592;DHT22;66891;46.884;17.436;2023-06-26T00:45:24;17.11;82.88
77592;DHT22;66891;46.884;17.436;2023-06-26T00:48:10;17.14;82.96
77592;DHT22;66891;46.884;17.436;2023-06-26T00:50:41;17.25;82.13
77592;DHT22;66891;46.884;17.436;2023-06-26T00:53:09;17.24;82.21
77592;DHT22;66891;46.884;17.436;2023-06-26T00:55:37;17.14;82.23
77592;DHT22;66891;46.884;17.436;2023-06-26T00:58:04;17.06;82.27
77592;DHT22;66891;46.884;17.436;2023-06-26T01:00:32;17.02;82.79
77592;DHT22;66891;46.884;17.436;2023-06-26T01:02:59;17.06;82.28
77592;DHT22;66891;46.884;17.436;2023-06-26T01:05:29;17.07;82.67
77592;DHT22;66891;46.884;17.436;2023-06-26T01:07:57;17.06;82.96
77592;DHT22;66891;46.884;17.436;2023-06-26T01:10:25;17.06;82.67
77592;DHT22;66891;46.884;17.436;2023-06-26T01:12:55;16.99;83.07
77592;DHT22;66891;46.884;17.436;2023-06-26T01:15:23;16.93;83.18
77592;DHT22;66891;46.884;17.436;2023-06-26T01:17:51;16.96;83.40
77592;DHT22;66891;46.884;17.436;2023-06-26T01:20:19;16.90;83.40
77592;DHT22;66891;46.884;17.436;2023-06-26T01:22:59;16.91;83.57
77592;DHT22;66891;46.884;17.436;2023-06-26T01:25:35;16.83;83.61
77592;DHT22;66891;46.884;17.436;2023-06-26T01:28:10;16.76;83.75
77592;DHT22;66891;46.884;17.436;2023-06-26T01:30:42;16.70;83.38
77592;DHT22;66891;46.884;17.436;2023-06-26T01:33:10;16.69;83.20
77592;DHT22;66891;46.884;17.436;2023-06-26T01:35:38;16.62;83.07
77592;DHT22;66891;46.884;17.436;2023-06-26T01:38:14;16.67;83.17
77592;DHT22;66891;46.884;17.436;2023-06-26T01:40:42;16.67;83.24
77592;DHT22;66891;46.884;17.436;2023-06-26T01:43:19;16.65;83.57
77592;DHT22;66891;46.884;17.436;2023-06-26T01:45:50;16.65;84.03
77592;DHT22;66891;46.884;17.436;2023-06-26T01:48:23;16.51;83.97
77592;DHT22;66891;46.884;17.436;2023-06-26T01:50:52;16.35;84.51
77592;DHT22;66891;46.884;17.436;2023-06-26T01:53:24;16.38;84.69
77592;DHT22;66891;46.884;17.436;2023-06-26T01:55:55;16.45;84.56
77592;DHT22;66891;46.884;17.436;2023-06-26T01:58:25;16.48;84.23
77592;DHT22;66891;46.884;17.436;2023-06-26T02:00:53;16.51;84.15
77592;DHT22;66891;46.884;17.436;2023-06-26T02:03:20;16.33;84.43
77592;DHT22;66891;46.884;17.436;2023-06-26T02:05:48;16.39;84.26
77592;DHT22;66891;46.884;17.436;2023-06-26T02:08:15;16.38;84.30
77592;DHT22;66891;46.884;17.436;2023-06-26T02:10:42;16.39;84.40
77592;DHT22;66891;46.884;17.436;2023-06-26T02:13:10;16.42;84.12
77592;DHT22;66891;46.884;17.436;2023-06-26T02:15:39;16.39;84.27
77592;DHT22;66891;46.884;17.436;2023-06-26T02:18:06;16.35;84.23
77592;DHT22;66891;46.884;17.436;2023-06-26T02:20:34;16.33;84.72
77592;DHT22;66891;46.884;17.436;2023-06-26T02:23:01;16.39;84.28
77592;DHT22;66891;46.884;17.436;2023-06-26T02:25:29;16.45;84.01
77592;DHT22;66891;46.884;17.436;2023-06-26T02:27:56;16.36;84.55
77592;DHT22;66891;46.884;17.436;2023-06-26T02:30:23;16.38;84.06
77592;DHT22;66891;46.884;17.436;2023-06-26T02:32:52;16.38;84.17
77592;DHT22;66891;46.884;17.436;2023-06-26T02:35:20;16.39;84.21
77592;DHT22;66891;46.884;17.436;2023-06-26T02:37:47;16.42;84.41
77592;DHT22;66891;46.884;17.436;2023-06-26T02:40:14;16.47;84.03
77592;DHT22;66891;46.884;17.436;2023-06-26T02:42:42;16.36;84.55
77592;DHT22;66891;46.884;17.436;2023-06-26T02:45:09;16.25;84.76
77592;DHT22;66891;46.884;17.436;2023-06-26T02:47:37;16.35;84.28
77592;DHT22;66891;46.884;17.436;2023-06-26T02:50:09;16.32;84.66
77592;DHT22;66891;46.884;17.436;2023-06-26T02:52:36;16.33;84.62
77592;DHT22;66891;46.884;17.436;2023-06-26T02:55:05;16.31;85.11
77592;DHT22;66891;46.884;17.436;2023-06-26T02:57:32;16.29;85.42
77592;DHT22;66891;46.884;17.436;2023-06-26T02:59:59;16.38;84.64
77592;DHT22;66891;46.884;17.436;2023-06-26T03:02:27;16.32;84.66
77592;DHT22;66891;46.884;17.436;2023-06-26T03:04:54;16.24;85.40
77592;DHT22;66891;46.884;17.436;2023-06-26T03:07:23;16.26;85.79
77592;DHT22;66891;46.884;17.436;2023-06-26T03:09:51;16.07;86.14
77592;DHT22;66891;46.884;17.436;2023-06-26T03:12:18;16.10;86.45
77592;DHT22;66891;46.884;17.436;2023-06-26T03:14:45;16.17;85.98
77592;DHT22;66891;46.884;17.436;2023-06-26T03:17:13;16.25;86.03
77592;DHT22;66891;46.884;17.436;2023-06-26T03:19:40;16.29;86.20
77592;DHT22;66891;46.884;17.436;2023-06-26T03:22:08;16.26;85.86
77592;DHT22;66891;46.884;17.436;2023-06-26T03:24:36;16.02;86.46
77592;DHT22;66891;46.884;17.436;2023-06-26T03:27:04;16.11;86.56
77592;DHT22;66891;46.884;17.436;2023-06-26T03:29:31;16.17;86.36
77592;DHT22;66891;46.884;17.436;2023-06-26T03:31:59;16.17;86.64
77592;DHT22;66891;46.884;17.436;2023-06-26T03:34:26;16.14;87.09
77592;DHT22;66891;46.884;17.436;2023-06-26T03:36:53;16.21;86.74
77592;DHT22;66891;46.884;17.436;2023-06-26T03:39:21;16.39;86.46
77592;DHT22;66891;46.884;17.436;2023-06-26T03:41:50;16.48;85.71
77592;DHT22;66891;46.884;17.436;2023-06-26T03:44:18;16.36;86.90
77592;DHT22;66891;46.884;17.436;2023-06-26T03:46:45;16.11;87.03
77592;DHT22;66891;46.884;17.436;2023-06-26T03:49:13;16.15;86.69
77592;DHT22;66891;46.884;17.436;2023-06-26T03:51:40;16.28;86.81
77592;DHT22;66891;46.884;17.436;2023-06-26T03:54:07;16.25;86.42
77592;DHT22;66891;46.884;17.436;2023-06-26T03:56:35;16.22;87.56
77592;DHT22;66891;46.884;17.436;2023-06-26T03:59:04;16.31;86.38
77592;DHT22;66891;46.884;17.436;2023-06-26T04:01:31;16.29;86.44
77592;DHT22;66891;46.884;17.436;2023-06-26T04:04:00;16.32;86.85
77592;DHT22;66891;46.884;17.436;2023-06-26T04:06:27;16.36;86.04
77592;DHT22;66891;46.884;17.436;2023-06-26T04:08:55;16.45;85.61
77592;DHT22;66891;46.884;17.436;2023-06-26T04:11:22;16.48;86.09
77592;DHT22;66891;46.884;17.436;2023-06-26T04:13:49;16.45;86.27
77592;DHT22;66891;46.884;17.436;2023-06-26T04:16:19;16.56;86.27
77592;DHT22;66891;46.884;17.436;2023-06-26T04:18:46;16.59;86.31
77592;DHT22;66891;46.884;17.436;2023-06-26T04:21:13;16.66;85.59
77592;DHT22;66891;46.884;17.436;2023-06-26T04:23:41;16.73;85.83
77592;DHT22;66891;46.884;17.436;2023-06-26T04:26:08;16.79;85.94
77592;DHT22;66891;46.884;17.436;2023-06-26T04:28:36;16.84;85.89
77592;DHT22;66891;46.884;17.436;2023-06-26T04:31:03;16.96;85.68
77592;DHT22;66891;46.884;17.436;2023-06-26T04:33:32;17.08;85.35
77592;DHT22;66891;46.884;17.436;2023-06-26T04:35:59;17.25;84.54
77592;DHT22;66891;46.884;17.436;2023-06-26T04:38:31;17.32;85.02
77592;DHT22;66891;46.884;17.436;2023-06-26T04:40:59;17.58;83.63
77592;DHT22;66891;46.884;17.436;2023-06-26T04:43:26;17.72;82.57
77592;DHT22;66891;46.884;17.436;2023-06-26T04:45:54;17.82;82.66
77592;DHT22;66891;46.884;17.436;2023-06-26T04:48:21;17.97;81.21
77592;DHT22;66891;46.884;17.436;2023-06-26T04:50:50;17.96;82.31
77592;DHT22;66891;46.884;17.436;2023-06-26T04:53:21;17.99;82.05
77592;DHT22;66891;46.884;17.436;2023-06-26T04:55:49;18.03;81.70
77592;DHT22;66891;46.884;17.436;2023-06-26T04:58:16;18.01;81.97
77592;DHT22;66891;46.884;17.436;2023-06-26T05:00:43;18.13;81.72
77592;DHT22;66891;46.884;17.436;2023-06-26T05:03:11;18.23;81.66
77592;DHT22;66891;46.884;17.436;2023-06-26T05:05:39;18.41;80.45
77592;DHT22;66891;46.884;17.436;2023-06-26T05:08:15;18.30;80.54
77592;DHT22;66891;46.884;17.436;2023-06-26T05:10:43;18.44;80.91
77592;DHT22;66891;46.884;17.436;2023-06-26T05:13:11;18.55;79.49
77592;DHT22;66891;46.884;17.436;2023-06-26T05:15:38;18.62;79.90
77592;DHT22;66891;46.884;17.436;2023-06-26T05:18:05;18.69;79.52
77592;DHT22;66891;46.884;17.436;2023-06-26T05:20:34;18.82;79.56
77592;DHT22;66891;46.884;17.436;2023-06-26T05:23:01;18.91;78.69
77592;DHT22;66891;46.884;17.436;2023-06-26T05:25:31;18.99;77.87
77592;DHT22;66891;46.884;17.436;2023-06-26T05:27:59;19.05;77.84
77592;DHT22;66891;46.884;17.436;2023-06-26T05:30:27;19.12;77.08
77592;DHT22;66891;46.884;17.436;2023-06-26T05:32:55;19.20;76.79
77592;DHT22;66891;46.884;17.436;2023-06-26T05:35:23;19.40;75.85
77592;DHT22;66891;46.884;17.436;2023-06-26T05:37:51;19.54;76.07
77592;DHT22;66891;46.884;17.436;2023-06-26T05:40:19;19.57;75.56
77592;DHT22;66891;46.884;17.436;2023-06-26T05:42:49;19.61;75.38
77592;DHT22;66891;46.884;17.436;2023-06-26T05:45:16;19.72;75.23
77592;DHT22;66891;46.884;17.436;2023-06-26T05:47:44;19.75;75.66
77592;DHT22;66891;46.884;17.436;2023-06-26T05:50:12;19.79;75.76
77592;DHT22;66891;46.884;17.436;2023-06-26T05:52:40;19.81;75.33
77592;DHT22;66891;46.884;17.436;2023-06-26T05:55:09;19.89;75.53
77592;DHT22;66891;46.884;17.436;2023-06-26T05:57:37;19.95;75.63
77592;DHT22;66891;46.884;17.436;2023-06-26T06:00:09;20.08;75.13
77592;DHT22;66891;46.884;17.436;2023-06-26T06:02:40;20.16;75.24
77592;DHT22;66891;46.884;17.436;2023-06-26T06:05:08;20.26;75.78
77592;DHT22;66891;46.884;17.436;2023-06-26T06:07:36;20.39;73.89
77592;DHT22;66891;46.884;17.436;2023-06-26T06:10:04;20.34;74.35
77592;DHT22;66891;46.884;17.436;2023-06-26T06:12:32;20.65;73.53
77592;DHT22;66891;46.884;17.436;2023-06-26T06:14:59;20.75;72.31
77592;DHT22;66891;46.884;17.436;2023-06-26T06:17:28;20.78;72.13
77592;DHT22;66891;46.884;17.436;2023-06-26T06:19:55;20.85;72.45
77592;DHT22;66891;46.884;17.436;2023-06-26T06:22:24;21.15;71.73
77592;DHT22;66891;46.884;17.436;2023-06-26T06:24:52;21.38;70.60
77592;DHT22;66891;46.884;17.436;2023-06-26T06:27:20;21.35;70.89
77592;DHT22;66891;46.884;17.436;2023-06-26T06:29:48;21.45;71.10
77592;DHT22;66891;46.884;17.436;2023-06-26T06:32:19;21.42;69.44
77592;DHT22;66891;46.884;17.436;2023-06-26T06:34:57;21.43;70.44
77592;DHT22;66891;46.884;17.436;2023-06-26T06:37:24;21.60;70.84
77592;DHT22;66891;46.884;17.436;2023-06-26T06:39:55;21.73;69.52
77592;DHT22;66891;46.884;17.436;2023-06-26T06:42:25;21.88;69.18
77592;DHT22;66891;46.884;17.436;2023-06-26T06:44:53;21.93;69.49
77592;DHT22;66891;46.884;17.436;2023-06-26T06:47:22;22.05;70.12
77592;DHT22;66891;46.884;17.436;2023-06-26T06:49:52;21.94;70.14
77592;DHT22;66891;46.884;17.436;2023-06-26T06:52:22;21.93;70.94
77592;DHT22;66891;46.884;17.436;2023-06-26T06:54:54;22.29;69.19
77592;DHT22;66891;46.884;17.436;2023-06-26T06:57:27;22.38;69.55
77592;DHT22;66891;46.884;17.436;2023-06-26T06:59:56;22.48;69.49
77592;DHT22;66891;46.884;17.436;2023-06-26T07:02:24;22.52;69.16
77592;DHT22;66891;46.884;17.436;2023-06-26T07:04:55;22.52;67.67
77592;DHT22;66891;46.884;17.436;2023-06-26T07:07:23;22.52;67.21
77592;DHT22;66891;46.884;17.436;2023-06-26T07:09:51;22.64;67.86
77592;DHT22;66891;46.884;17.436;2023-06-26T07:12:21;22.70;65.94
77592;DHT22;66891;46.884;17.436;2023-06-26T07:14:50;22.76;65.64
77592;DHT22;66891;46.884;17.436;2023-06-26T07:17:19;22.86;65.50
77592;DHT22;66891;46.884;17.436;2023-06-26T07:19:48;22.97;66.45
77592;DHT22;66891;46.884;17.436;2023-06-26T07:22:19;22.96;65.58
77592;DHT22;66891;46.884;17.436;2023-06-26T07:24:49;23.08;64.90
77592;DHT22;66891;46.884;17.436;2023-06-26T07:27:19;23.07;65.73
77592;DHT22;66891;46.884;17.436;2023-06-26T07:29:48;23.14;65.83
77592;DHT22;66891;46.884;17.436;2023-06-26T07:32:18;23.39;65.39
77592;DHT22;66891;46.884;17.436;2023-06-26T07:34:47;23.41;63.56
77592;DHT22;66891;46.884;17.436;2023-06-26T07:37:18;23.42;63.41
77592;DHT22;66891;46.884;17.436;2023-06-26T07:39:48;23.47;62.64
77592;DHT22;66891;46.884;17.436;2023-06-26T07:42:17;23.59;63.20
77592;DHT22;66891;46.884;17.436;2023-06-26T07:44:46;23.69;64.50
77592;DHT22;66891;46.884;17.436;2023-06-26T07:47:15;23.72;62.70
77592;DHT22;66891;46.884;17.436;2023-06-26T07:49:45;23.66;62.71
77592;DHT22;66891;46.884;17.436;2023-06-26T07:52:15;23.65;63.11
77592;DHT22;66891;46.884;17.436;2023-06-26T07:54:46;23.66;62.78
77592;DHT22;66891;46.884;17.436;2023-06-26T07:57:15;23.83;63.79
77592;DHT22;66891;46.884;17.436;2023-06-26T07:59:45;23.86;63.07
77592;DHT22;66891;46.884;17.436;2023-06-26T08:02:14;23.83;62.62
77592;DHT22;66891;46.884;17.436;2023-06-26T08:04:45;23.86;62.87
77592;DHT22;66891;46.884;17.436;2023-06-26T08:07:14;23.87;61.60
77592;DHT22;66891;46.884;17.436;2023-06-26T08:09:45;23.86;62.01
77592;DHT22;66891;46.884;17.436;2023-06-26T08:12:14;23.90;60.91
77592;DHT22;66891;46.884;17.436;2023-06-26T08:14:43;23.96;61.78
77592;DHT22;66891;46.884;17.436;2023-06-26T08:17:13;24.07;59.61
77592;DHT22;66891;46.884;17.436;2023-06-26T08:19:42;24.13;59.75
77592;DHT22;66891;46.884;17.436;2023-06-26T08:22:11;24.14;60.06
77592;DHT22;66891;46.884;17.436;2023-06-26T08:24:41;24.18;60.47
77592;DHT22;66891;46.884;17.436;2023-06-26T08:27:12;24.10;59.23
77592;DHT22;66891;46.884;17.436;2023-06-26T08:29:41;24.10;59.56
77592;DHT22;66891;46.884;17.436;2023-06-26T08:32:10;24.20;58.70
77592;DHT22;66891;46.884;17.436;2023-06-26T08:34:40;24.35;58.70
77592;DHT22;66891;46.884;17.436;2023-06-26T08:37:09;24.60;59.74
77592;DHT22;66891;46.884;17.436;2023-06-26T08:39:38;24.86;60.68
77592;DHT22;66891;46.884;17.436;2023-06-26T08:42:07;24.68;57.90
77592;DHT22;66891;46.884;17.436;2023-06-26T08:44:40;24.76;57.50
77592;DHT22;66891;46.884;17.436;2023-06-26T08:47:27;24.92;57.45
77592;DHT22;66891;46.884;17.436;2023-06-26T08:50:07;24.92;57.14
77592;DHT22;66891;46.884;17.436;2023-06-26T08:52:43;24.90;57.64
77592;DHT22;66891;46.884;17.436;2023-06-26T08:55:12;25.05;57.77
77592;DHT22;66891;46.884;17.436;2023-06-26T08:57:42;24.99;56.33
77592;DHT22;66891;46.884;17.436;2023-06-26T09:00:14;25.15;57.35
77592;DHT22;66891;46.884;17.436;2023-06-26T09:02:42;25.20;57.14
77592;DHT22;66891;46.884;17.436;2023-06-26T09:05:12;25.31;57.86
77592;DHT22;66891;46.884;17.436;2023-06-26T09:07:39;25.30;57.42
77592;DHT22;66891;46.884;17.436;2023-06-26T09:10:08;25.48;56.44
77592;DHT22;66891;46.884;17.436;2023-06-26T09:12:36;25.55;57.04
77592;DHT22;66891;46.884;17.436;2023-06-26T09:15:05;25.68;56.06
77592;DHT22;66891;46.884;17.436;2023-06-26T09:17:39;25.48;56.44
77592;DHT22;66891;46.884;17.436;2023-06-26T09:20:10;25.54;57.20
77592;DHT22;66891;46.884;17.436;2023-06-26T09:22:40;25.73;58.60
77592;DHT22;66891;46.884;17.436;2023-06-26T09:25:08;25.82;56.35
77592;DHT22;66891;46.884;17.436;2023-06-26T09:27:36;25.64;56.16
77592;DHT22;66891;46.884;17.436;2023-06-26T09:30:05;25.57;56.86
77592;DHT22;66891;46.884;17.436;2023-06-26T09:32:35;25.81;56.16
77592;DHT22;66891;46.884;17.436;2023-06-26T09:35:06;25.65;55.86
77592;DHT22;66891;46.884;17.436;2023-06-26T09:37:34;25.71;55.48
77592;DHT22;66891;46.884;17.436;2023-06-26T09:40:02;25.74;55.18
77592;DHT22;66891;46.884;17.436;2023-06-26T09:42:30;25.58;54.90
77592;DHT22;66891;46.884;17.436;2023-06-26T09:44:58;25.65;55.68
77592;DHT22;66891;46.884;17.436;2023-06-26T09:47:25;25.81;56.28
77592;DHT22;66891;46.884;17.436;2023-06-26T09:49:54;25.92;55.70
77592;DHT22;66891;46.884;17.436;2023-06-26T09:52:26;26.05;56.44
77592;DHT22;66891;46.884;17.436;2023-06-26T09:55:07;26.11;54.76
77592;DHT22;66891;46.884;17.436;2023-06-26T09:57:35;26.23;55.77
77592;DHT22;66891;46.884;17.436;2023-06-26T10:00:03;26.30;54.73
77592;DHT22;66891;46.884;17.436;2023-06-26T10:02:32;26.47;54.75
77592;DHT22;66891;46.884;17.436;2023-06-26T10:05:01;26.43;54.22
77592;DHT22;66891;46.884;17.436;2023-06-26T10:07:28;26.50;55.88
77592;DHT22;66891;46.884;17.436;2023-06-26T10:09:56;26.59;55.40
77592;DHT22;66891;46.884;17.436;2023-06-26T10:12:27;26.57;55.89
77592;DHT22;66891;46.884;17.436;2023-06-26T10:14:56;26.60;56.08
77592;DHT22;66891;46.884;17.436;2023-06-26T10:17:27;26.80;56.32
77592;DHT22;66891;46.884;17.436;2023-06-26T10:19:58;27.01;55.58
77592;DHT22;66891;46.884;17.436;2023-06-26T10:22:33;27.09;53.97
77592;DHT22;66891;46.884;17.436;2023-06-26T10:25:06;27.26;54.45
77592;DHT22;66891;46.884;17.436;2023-06-26T10:27:37;27.31;54.18
77592;DHT22;66891;46.884;17.436;2023-06-26T10:30:09;27.07;54.32
77592;DHT22;66891;46.884;17.436;2023-06-26T10:32:40;27.12;55.89
77592;DHT22;66891;46.884;17.436;2023-06-26T10:35:08;27.04;54.60
77592;DHT22;66891;46.884;17.436;2023-06-26T10:37:42;27.69;54.40
77592;DHT22;66891;46.884;17.436;2023-06-26T10:40:11;27.36;53.22
77592;DHT22;66891;46.884;17.436;2023-06-26T10:42:39;26.74;55.42
77592;DHT22;66891;46.884;17.436;2023-06-26T10:45:13;27.01;53.92
77592;DHT22;66891;46.884;17.436;2023-06-26T10:47:42;27.08;52.93
77592;DHT22;66891;46.884;17.436;2023-06-26T10:50:20;27.73;53.76
77592;DHT22;66891;46.884;17.436;2023-06-26T10:53:10;27.80;52.46
77592;DHT22;66891;46.884;17.436;2023-06-26T10:55:41;27.21;52.92
77592;DHT22;66891;46.884;17.436;2023-06-26T10:58:27;27.35;53.11
77592;DHT22;66891;46.884;17.436;2023-06-26T11:01:19;27.49;53.63
77592;DHT22;66891;46.884;17.436;2023-06-26T11:04:03;27.60;51.30
77592;DHT22;66891;46.884;17.436;2023-06-26T11:06:32;27.89;51.08
77592;DHT22;66891;46.884;17.436;2023-06-26T11:09:09;27.86;51.76
77592;DHT22;66891;46.884;17.436;2023-06-26T11:11:56;28.21;50.45
77592;DHT22;66891;46.884;17.436;2023-06-26T11:14:30;27.86;50.87
77592;DHT22;66891;46.884;17.436;2023-06-26T11:16:58;28.32;49.78
77592;DHT22;66891;46.884;17.436;2023-06-26T11:19:27;28.45;51.62
77592;DHT22;66891;46.884;17.436;2023-06-26T11:21:59;27.66;52.79
77592;DHT22;66891;46.884;17.436;2023-06-26T11:24:30;28.11;51.84
77592;DHT22;66891;46.884;17.436;2023-06-26T11:27:02;28.86;51.41
77592;DHT22;66891;46.884;17.436;2023-06-26T11:29:31;28.80;49.32
77592;DHT22;66891;46.884;17.436;2023-06-26T11:32:00;29.51;50.67
77592;DHT22;66891;46.884;17.436;2023-06-26T11:34:32;28.97;47.38
77592;DHT22;66891;46.884;17.436;2023-06-26T11:36:59;29.35;47.90
77592;DHT22;66891;46.884;17.436;2023-06-26T11:39:32;29.78;47.22
77592;DHT22;66891;46.884;17.436;2023-06-26T11:42:00;29.10;50.65
77592;DHT22;66891;46.884;17.436;2023-06-26T11:44:31;29.90;45.56
77592;DHT22;66891;46.884;17.436;2023-06-26T11:46:59;29.88;47.53
77592;DHT22;66891;46.884;17.436;2023-06-26T11:49:28;30.31;45.49
77592;DHT22;66891;46.884;17.436;2023-06-26T11:51:56;30.53;46.67
77592;DHT22;66891;46.884;17.436;2023-06-26T11:54:24;30.44;45.28
77592;DHT22;66891;46.884;17.436;2023-06-26T11:57:01;31.22;45.42
77592;DHT22;66891;46.884;17.436;2023-06-26T11:59:35;31.39;44.93
77592;DHT22;66891;46.884;17.436;2023-06-26T12:02:06;31.54;43.37
77592;DHT22;66891;46.884;17.436;2023-06-26T12:04:36;30.47;47.03
77592;DHT22;66891;46.884;17.436;2023-06-26T12:07:05;31.43;45.06
77592;DHT22;66891;46.884;17.436;2023-06-26T12:09:38;31.34;44.89
77592;DHT22;66891;46.884;17.436;2023-06-26T12:12:10;31.12;45.17
77592;DHT22;66891;46.884;17.436;2023-06-26T12:14:38;31.12;44.86
77592;DHT22;66891;46.884;17.436;2023-06-26T12:17:09;31.39;42.72
77592;DHT22;66891;46.884;17.436;2023-06-26T12:19:37;31.77;44.05
77592;DHT22;66891;46.884;17.436;2023-06-26T12:22:08;31.46;44.12
77592;DHT22;66891;46.884;17.436;2023-06-26T12:24:38;31.61;43.64
77592;DHT22;66891;46.884;17.436;2023-06-26T12:27:12;31.87;42.59
77592;DHT22;66891;46.884;17.436;2023-06-26T12:29:45;31.84;42.04
77592;DHT22;66891;46.884;17.436;2023-06-26T12:32:14;32.01;42.83
77592;DHT22;66891;46.884;17.436;2023-06-26T12:34:41;32.25;43.19
77592;DHT22;66891;46.884;17.436;2023-06-26T12:37:09;32.33;43.21
77592;DHT22;66891;46.884;17.436;2023-06-26T12:39:47;32.62;42.01
77592;DHT22;66891;46.884;17.436;2023-06-26T12:42:17;33.01;41.62
77592;DHT22;66891;46.884;17.436;2023-06-26T12:44:45;31.94;40.74
77592;DHT22;66891;46.884;17.436;2023-06-26T12:47:13;32.08;41.39
77592;DHT22;66891;46.884;17.436;2023-06-26T12:49:43;32.59;41.85
77592;DHT22;66891;46.884;17.436;2023-06-26T12:52:12;31.57;44.15
77592;DHT22;66891;46.884;17.436;2023-06-26T12:54:40;31.15;44.81
77592;DHT22;66891;46.884;17.436;2023-06-26T12:57:08;30.68;45.97
77592;DHT22;66891;46.884;17.436;2023-06-26T12:59:37;31.73;44.62
77592;DHT22;66891;46.884;17.436;2023-06-26T13:02:06;31.67;44.29
77592;DHT22;66891;46.884;17.436;2023-06-26T13:04:33;31.67;41.81
77592;DHT22;66891;46.884;17.436;2023-06-26T13:07:01;31.77;41.19
77592;DHT22;66891;46.884;17.436;2023-06-26T13:09:32;31.15;42.76
77592;DHT22;66891;46.884;17.436;2023-06-26T13:12:00;30.88;42.79
77592;DHT22;66891;46.884;17.436;2023-06-26T13:14:28;30.03;43.87
77592;DHT22;66891;46.884;17.436;2023-06-26T13:16:57;29.39;45.18
77592;DHT22;66891;46.884;17.436;2023-06-26T13:19:36;29.38;45.40
77592;DHT22;66891;46.884;17.436;2023-06-26T13:22:04;29.37;46.20
77592;DHT22;66891;46.884;17.436;2023-06-26T13:24:31;28.93;46.42
77592;DHT22;66891;46.884;17.436;2023-06-26T13:26:59;28.94;46.69
77592;DHT22;66891;46.884;17.436;2023-06-26T13:29:26;29.15;47.58
77592;DHT22;66891;46.884;17.436;2023-06-26T13:31:53;29.13;46.27
77592;DHT22;66891;46.884;17.436;2023-06-26T13:34:23;29.14;48.54
77592;DHT22;66891;46.884;17.436;2023-06-26T13:36:51;29.45;46.83
77592;DHT22;66891;46.884;17.436;2023-06-26T13:39:18;29.61;47.37
77592;DHT22;66891;46.884;17.436;2023-06-26T13:41:46;29.00;46.87
77592;DHT22;66891;46.884;17.436;2023-06-26T13:44:13;28.86;45.96
77592;DHT22;66891;46.884;17.436;2023-06-26T13:46:56;28.84;46.96
77592;DHT22;66891;46.884;17.436;2023-06-26T13:49:25;28.97;47.13
77592;DHT22;66891;46.884;17.436;2023-06-26T13:51:53;29.14;47.23
77592;DHT22;66891;46.884;17.436;2023-06-26T13:54:20;29.21;46.17
77592;DHT22;66891;46.884;17.436;2023-06-26T13:56:47;29.34;47.32
77592;DHT22;66891;46.884;17.436;2023-06-26T13:59:17;29.31;47.09
77592;DHT22;66891;46.884;17.436;2023-06-26T14:01:48;29.21;47.49
77592;DHT22;66891;46.884;17.436;2023-06-26T14:04:15;29.10;47.55
77592;DHT22;66891;46.884;17.436;2023-06-26T14:06:44;28.80;45.55
77592;DHT22;66891;46.884;17.436;2023-06-26T14:09:12;28.79;45.62
77592;DHT22;66891;46.884;17.436;2023-06-26T14:11:39;28.68;45.97
77592;DHT22;66891;46.884;17.436;2023-06-26T14:14:07;28.62;46.23
77592;DHT22;66891;46.884;17.436;2023-06-26T14:16:34;28.56;46.64
77592;DHT22;66891;46.884;17.436;2023-06-26T14:19:06;28.68;46.42
77592;DHT22;66891;46.884;17.436;2023-06-26T14:21:33;28.59;46.30
77592;DHT22;66891;46.884;17.436;2023-06-26T14:24:03;28.60;45.51
77592;DHT22;66891;46.884;17.436;2023-06-26T14:26:30;28.51;45.42
77592;DHT22;66891;46.884;17.436;2023-06-26T14:28:59;28.62;48.20
77592;DHT22;66891;46.884;17.436;2023-06-26T14:31:26;28.62;48.32
77592;DHT22;66891;46.884;17.436;2023-06-26T14:33:54;28.55;48.47
77592;DHT22;66891;46.884;17.436;2023-06-26T14:36:21;28.58;47.67
77592;DHT22;66891;46.884;17.436;2023-06-26T14:38:48;28.56;48.02
77592;DHT22;66891;46.884;17.436;2023-06-26T14:41:17;28.58;49.48
77592;DHT22;66891;46.884;17.436;2023-06-26T14:43:45;28.63;47.53
77592;DHT22;66891;46.884;17.436;2023-06-26T14:46:13;28.47;48.13
77592;DHT22;66891;46.884;17.436;2023-06-26T14:48:41;28.48;48.19
77592;DHT22;66891;46.884;17.436;2023-06-26T14:51:08;28.52;48.21
77592;DHT22;66891;46.884;17.436;2023-06-26T14:53:35;28.51;48.73
77592;DHT22;66891;46.884;17.436;2023-06-26T14:56:03;28.60;48.59
77592;DHT22;66891;46.884;17.436;2023-06-26T14:58:34;28.35;46.87
77592;DHT22;66891;46.884;17.436;2023-06-26T15:01:01;28.32;47.18
77592;DHT22;66891;46.884;17.436;2023-06-26T15:03:28;28.27;47.58
77592;DHT22;66891;46.884;17.436;2023-06-26T15:05:56;28.41;48.28
77592;DHT22;66891;46.884;17.436;2023-06-26T15:08:23;28.34;49.50
77592;DHT22;66891;46.884;17.436;2023-06-26T15:10:51;28.35;47.79
77592;DHT22;66891;46.884;17.436;2023-06-26T15:13:18;28.41;47.33
77592;DHT22;66891;46.884;17.436;2023-06-26T15:15:46;28.49;46.74
77592;DHT22;66891;46.884;17.436;2023-06-26T15:18:14;28.48;47.69
77592;DHT22;66891;46.884;17.436;2023-06-26T15:20:41;28.45;47.10
77592;DHT22;66891;46.884;17.436;2023-06-26T15:23:08;28.56;47.32
77592;DHT22;66891;46.884;17.436;2023-06-26T15:25:36;28.55;46.42
77592;DHT22;66891;46.884;17.436;2023-06-26T15:28:03;28.52;47.21